Pos Num Class CPos  Team                           Car                     Time     Gap  To 1st   Speed
--- --- ----- ----- ------------------------------ ----------------- ---------- ------- ------- -------
 1.  13 GS    1     Rum Bum Racing                 BMW M3 Coupe        1:59.597                 107.159
 2.  15 GS    2     Multimatic Motorsports         Mustang Boss 302R   2:00.750   1.153   1.153 106.136
 3.  96 GS    3     Turner Motorsport              BMW M3 Coupe        2:00.812   0.062   1.215 106.082
 4.  61 GS    4     Roush Performance              Ford Mustang GT     2:00.829   0.017   1.232 106.067
 5.  45 GS    5     Fall-Line Motorsports          BMW M3 Coupe        2:01.018   0.189   1.421 105.901
 6.  16 GS    6     Multimatic Motorsports         Mustang Boss 302R   2:01.056   0.038   1.459 105.868
 7.  41 GS    7     TRG                            Porsche 997         2:01.063   0.007   1.466 105.862
 8.  00 GS    8     Kinetic Motorsports            BMW M3 Coupe        2:01.103   0.040   1.506 105.827
 9.  59 GS    9     Rehagen Racing                 Ford Mustang GT     2:01.553   0.450   1.956 105.435
10.  48 GS    10    Fall-Line Motorsports          BMW M3 Coupe        2:01.586   0.033   1.989 105.406
11.   9 GS    11    Stevenson Motorsports          Camaro GS.R         2:01.714   0.128   2.117 105.296
12.  11 GS    12    CMA Motorsports                Ford Mustang GT     2:01.917   0.203   2.320 105.120
13.  56 GS    13    Jim Click Racing               Ford Mustang GT     2:02.157   0.240   2.560 104.914
14.  88 GS    14    Ranger Sports Racing           Porsche 997         2:02.173   0.016   2.576 104.900
15.  52 GS    15    Rehagen Racing                 Ford Mustang GT     2:02.242   0.069   2.645 104.841
16.  46 GS    16    Fall-Line Motorsports          BMW M3 Coupe        2:02.309   0.067   2.712 104.783
17.  23 GS    17    BGB Motorsports                Porsche Cayman      2:02.346   0.037   2.749 104.752
18.  60 GS    18    Horsepower Ranch               Ford Mustang GT     2:02.517   0.171   2.920 104.605
19.  97 GS    19    Turner Motorsport              BMW M3 Coupe        2:02.595   0.078   2.998 104.539
20.  99 GS    20    Automatic Racing               BMW M3 Coupe        2:02.622   0.027   3.025 104.516
21.  38 GS    21    BGB Motorsports                Porsche Cayman      2:02.781   0.159   3.184 104.380
22.  37 GS    22    JBS Motorsports                Ford Mustang GT     2:02.917   0.136   3.320 104.265
23.  83 GS    23    BGB Motorsports                Porsche Carrera     2:03.099   0.182   3.502 104.111
24.  79 GS    24    Kinetic Motorsports            BMW M3 Coupe        2:03.258   0.159   3.661 103.977
25.  54 GS    25    TC Motorsports                 Camaro GS.R         2:03.317   0.059   3.720 103.927
26.  07 GS    26    Euro Motorworks Racing         Porsche 997         2:03.462   0.145   3.865 103.805
27.  01 GS    27    APR Motorsport                 Audi S4             2:03.635   0.173   4.038 103.659
28.  57 GS    28    Rehagen Racing                 Ford Mustang GT     2:03.721   0.086   4.124 103.587
29.   6 GS    29    Stevenson Motorsports          Camaro GS.R         2:03.861   0.140   4.264 103.470
30.   4 GS    30    TPN/Blackforest Racing         Dodge Challenger    2:03.904   0.043   4.307 103.434
31.   5 GS    31    TPN/Blackforest Racing         Dodge Challenger    2:04.204   0.300   4.607 103.185
32.  53 GS    32    Jim Click Racing               Ford Mustang GT     2:04.325   0.121   4.728 103.084
33.  55 GS    33    TC Motorsports                 Camaro GS.R         2:04.353   0.028   4.756 103.061
34.  35 GS    34    Subaru Road Racing Team        Subaru WRX-STI      2:04.378   0.025   4.781 103.040
35.  40 GS    35    Racers Edge Motorsports        Ford Mustang GT     2:04.787   0.409   5.190 102.703
36.  06 GS    36    Momentum Race Group            Camaro GS.R         2:04.908   0.121   5.311 102.603
37.  29 GS    37    Racers Edge Motorsports        Mustang Boss 302R   2:05.241   0.333   5.644 102.330
38.  68 GS    38    CA Sport                       Ford Mustang GT     2:05.412   0.171   5.815 102.191
39.  17 GS    39    CMA Motorsports                Ford Mustang GT     2:07.846   2.434   8.249 100.245
40.  89 GS    40    Ranger Sports Racing           Porsche 997         2:09.066   1.220   9.469  99.298
41.  74 ST    1     Compass360 Racing              Honda Civic SI      2:10.009   0.943  10.412  98.577
42.  25 ST    2     Freedom Autosport              Mazda MX-5          2:10.280   0.271  10.683  98.372
43.   8 ST    3     Maxwell Paper Racing           Boxster             2:10.444   0.164  10.847  98.249
44. 197 ST    4     RSR Motorsports                Mini Cooper S       2:10.850   0.406  11.253  97.944
45.  75 ST    5     Compass360 Racing              Honda Civic SI      2:11.030   0.180  11.433  97.809
46.  05 GS    41    Momentum Race Group            Camaro GS.R         2:11.291   0.261  11.694  97.615
47.  80 ST    6     BimmerWorld/GearWrench         BMW 328i            2:11.305   0.014  11.708  97.604
48.  26 ST    7     Freedom Autosport              Mazda MX-5          2:11.525   0.220  11.928  97.441
49.  42 ST    8     LRT Racing                     Honda Civic SI      2:11.624   0.099  12.027  97.368
50. 181 ST    9     APR Motorsport                 Volkswagen GTI      2:11.643   0.019  12.046  97.354
51.  30 ST    10    i-MOTO                         Mazda RX-8          2:11.668   0.025  12.071  97.335
52.  76 ST    11    Compass360 Racing              Honda Civic SI      2:11.840   0.172  12.243  97.208
53.  92 ST    12    HART                           Honda Civic SI      2:12.236   0.396  12.639  96.917
54.  77 ST    13    Compass360 Racing              Honda Civic SI      2:12.247   0.011  12.650  96.909
55.  18 ST    14    RRT Racing                     BMW 328i            2:12.593   0.346  12.996  96.656
56.  08 ST    15    Team MER                       Mazda RX-8          2:12.614   0.021  13.017  96.641
57.  51 ST    16    Irish Mike's Racing            Volkswagen Jetta    2:12.759   0.145  13.162  96.535
58. 171 ST    17    APR Motorsport                 Volkswagen GTI      2:12.958   0.199  13.361  96.391
59.  24 ST    18    V-Pack Motorsport              BMW 330             2:13.017   0.059  13.420  96.348
60.  86 ST    19    Prey Racing                    Boxster             2:13.194   0.177  13.597  96.220
61.  22 ST    20    GS Motorsports                 Chevrolet Cobalt    2:13.247   0.053  13.650  96.182
62. 196 ST    21    RSR Motorsports                Mini Cooper S       2:13.310   0.063  13.713  96.136
63.  21 ST    22    GS Motorsports                 Chevrolet Cobalt    2:13.391   0.081  13.794  96.078
64.  69 ST    23    Pirate Motorsports             Mazda RX-8          2:13.447   0.056  13.850  96.038
65.  49 ST    24    Irish Mike's Racing            Volkswagen Jetta    2:14.111   0.664  14.514  95.562
66.  50 ST    25    Irish Mike's Racing            Volkswagen Jetta    2:14.418   0.307  14.821  95.344
67.  81 ST    26    BimmerWorld/GearWrench         BMW 328i            2:14.665   0.247  15.068  95.169
68.  27 ST    27    Freedom Autosport              Mazda Speed 3       2:14.785   0.120  15.188  95.084
69.  10 ST    28    Kinetic Motorsports            KIA Forte Koup      2:14.808   0.023  15.211  95.068
70.  28 ST    29    Freedom Autosport              Mazda Speed 3       2:14.921   0.113  15.324  94.988
71.  36 ST    30    Next Generation Motorsports    BMW 330             2:15.253   0.332  15.656  94.755
72.  43 ST    31    Team Sahlen                    Mazda Speed 3       2:15.547   0.294  15.950  94.550
73.  39 ST    32    Next Generation Motorsports    BMW 330             2:15.785   0.238  16.188  94.384
74.  12 ST    33    Kinetic Motorsports            KIA Forte Koup      2:16.714   0.929  17.117  93.743
75.  34 ST    34    Next Generation Motorsports    BMW 330             2:16.723   0.009  17.126  93.736
76.  67 ST    35    CA Sport                       Honda Civic SI      2:16.792   0.069  17.195  93.689